Etusivu
METAR-TAF:

METAR-TAF

Lentoasemat :

Harstadin/Narvikin lentoasema

Evenes, Norja

Leveyspiiri: 68-31N, Pituuspiiri: 016-41E, korkeus merenpinnasta: 26 m

Tämänhetkinen sää

Tämä raportti tehtiin 17 minuuttia sitten, kello 23.20 UTC
Tuuli 2 kn pohjoisesta
Lämpötila -3°C
Kosteus 100%
Ilmanpaine 1037 hPa
Näkyvyys 10 km tai enemmän

METAR: ENEV 202320Z AUTO 01002KT 9999 NCD M03/M03 Q1037 RMK WIND 1400FT 31002KT

Aika: 00:37 (23:37 UTC)

Sääennuste

Tämä raportti tehtiin 6 tuntia ja 37 minuuttia sitten, kello 17.00 UTC
Ennuste voimassa 20. päivästä klo 18 UTC - 20. päivään klo 22 UTC
Tuuli 8 kn pohjoisen/luoteesta
Näkyvyys 10 km tai enemmän
Muutamia pilviä 1500 ft:n korkeudessa
Hajonneita pilviä 3000 ft:n korkeudessa

TAF: ENEV 201700Z 2018/2022 33008KT 9999 FEW015 BKN030

Säähavainnot ja -ennusteet yli 4000 lentoasemalta (METAR- ja TAF-raportit).

Käytössä olevat sääasemat on merkitty karttaan keltaisilla ja punaisilla pisteillä.

Aseta hiiri pisteen päälle nähdäksesi sääaseman nimen.

Klikkaa sitten nähdäksesi säähavainnot ja -ennusteet.

Kartan vaihtaminen: klikkaa mustalla rastilla varustettuja vihreitä pisteitä, niin voit zoomata sisään; viivalla varustettua vihreää pistettä, niin voit zoomata ulos tai vihreitä nuolia, niin pääset viereisille kartoille.


METAR-TAF: